»·PEaware :: N13W KSBD-KOXR

N13W :: KSBD-KOXR

FLIGHT INFORMATION

Flight Status: Arrived
Operator: Privately registered:
United States
More flights under this callsign
Pilot: Will N. (25416)
Aircraft: SOCATA TBM-900
(TBM9)
More flights by this aircraft type
Origin: KSBD San Bernardino Intl
United States
Destination: KOXR Oxnard
United States
More flights between these airports :: More routes between these airports
Route: +PDZ POM V264 ITSME V186 VNY FIM
File this flight plan on PilotEdge
Remarks: RMK / SIMBRIEF
Altitude:
(Current/Filed)
16,000ft
Speed:
(Current/Filed)
289kts
Departed: 08-Nov-19 06:40 PM
Arrived: 08-Nov-19 07:12 PM
Distance/Time
Traveled:
98nm/0:32
Distance/Time
To Go:
Arrived

Flight Plot

Page will automatically refresh every two minutes.

Flight plan parsing failed; only flown route is shown


Map Options




Map Legend


Flown Route
Filed Route
Departure Airport
Arrival Airport
Navaid (VOR, NDB)
Fix

Horizontal Profiles

Position Reports

Time Latitude Longitude Heading Altitude Ground
Speed
08-Nov-19 18:10 34.102287 -117.244879 28 1100ft 0kts
08-Nov-19 18:11 34.102287 -117.244879 28 1100ft 0kts
08-Nov-19 18:12 34.102287 -117.244879 28 1100ft 0kts
08-Nov-19 18:13 34.102287 -117.244879 28 1100ft 0kts
08-Nov-19 18:14 34.100979 -117.244555 179 1099ft 11kts
08-Nov-19 18:15 34.098308 -117.243062 147 1098ft 10kts
08-Nov-19 18:16 34.097335 -117.241457 159 1102ft 0kts
08-Nov-19 18:17 34.097024 -117.241464 181 1102ft 1kts
08-Nov-19 18:18 34.096965 -117.241466 181 1102ft 0kts
08-Nov-19 18:19 34.096965 -117.241466 181 1102ft 0kts
08-Nov-19 18:20 34.096965 -117.241466 181 1102ft 0kts
08-Nov-19 18:21 34.096965 -117.241466 181 1102ft 0kts
08-Nov-19 18:22 34.096965 -117.241466 181 1102ft 0kts
08-Nov-19 18:23 34.096965 -117.241466 181 1102ft 0kts
08-Nov-19 18:24 34.096965 -117.241466 181 1102ft 0kts
08-Nov-19 18:25 34.096965 -117.241466 181 1102ft 0kts
08-Nov-19 18:26 34.096965 -117.241466 181 1102ft 0kts
08-Nov-19 18:27 34.096965 -117.241466 181 1102ft 0kts
08-Nov-19 18:28 34.096965 -117.241466 181 1102ft 0kts
08-Nov-19 18:29 34.096965 -117.241466 181 1102ft 0kts
08-Nov-19 18:30 34.096965 -117.241466 181 1102ft 0kts
08-Nov-19 18:31 34.096965 -117.241466 181 1102ft 0kts
08-Nov-19 18:32 34.095783 -117.241968 190 1101ft 11kts
08-Nov-19 18:33 34.093737 -117.246399 251 1091ft 19kts
08-Nov-19 18:34 34.091715 -117.250810 155 1082ft 9kts
08-Nov-19 18:35 34.091639 -117.250770 158 1082ft 0kts
08-Nov-19 18:36 34.091639 -117.250770 158 1082ft 0kts
08-Nov-19 18:37 34.091639 -117.250770 158 1082ft 0kts
08-Nov-19 18:38 34.091331 -117.250608 152 1082ft 7kts
08-Nov-19 18:39 34.095461 -117.234716 70 1259ft 134kts
08-Nov-19 18:40 34.081338 -117.211721 230 3230ft 163kts
08-Nov-19 18:41 34.054961 -117.259541 235 5225ft 180kts
08-Nov-19 18:42 34.027215 -117.314140 241 7270ft 197kts
08-Nov-19 18:43 33.995682 -117.377112 240 7991ft 251kts
08-Nov-19 18:44 33.957386 -117.452861 239 7971ft 270kts
08-Nov-19 18:45 33.925711 -117.533874 283 7941ft 267kts
08-Nov-19 18:46 33.966218 -117.606616 309 7970ft 261kts
08-Nov-19 18:47 34.009795 -117.676669 308 7972ft 261kts
08-Nov-19 18:48 34.053709 -117.747305 308 7983ft 263kts
08-Nov-19 18:49 34.077848 -117.827993 269 8003ft 269kts
08-Nov-19 18:50 34.076396 -117.917507 270 7989ft 264kts
08-Nov-19 18:51 34.075684 -118.005858 279 7954ft 261kts
08-Nov-19 18:52 34.100869 -118.089002 289 7991ft 266kts
08-Nov-19 18:53 34.126789 -118.173707 290 7991ft 268kts
08-Nov-19 18:54 34.138339 -118.263423 272 7232ft 280kts
08-Nov-19 18:55 34.141048 -118.358006 272 5992ft 278kts
08-Nov-19 18:56 34.143687 -118.447303 272 5986ft 257kts
08-Nov-19 18:57 34.146364 -118.533473 272 5966ft 252kts
08-Nov-19 18:59 34.146091 -118.613766 272 5956ft 225kts
08-Nov-19 19:00 34.145621 -118.686416 271 5968ft 211kts
08-Nov-19 19:01 34.145023 -118.755508 271 5977ft 199kts
08-Nov-19 19:02 34.161597 -118.819750 291 4817ft 214kts
08-Nov-19 19:03 34.181817 -118.883614 291 4068ft 186kts
08-Nov-19 19:04 34.200396 -118.938719 281 3971ft 169kts
08-Nov-19 19:05 34.199414 -118.995844 271 3331ft 176kts
08-Nov-19 19:06 34.199740 -119.056005 270 2371ft 181kts
08-Nov-19 19:07 34.200109 -119.110365 269 1568ft 151kts
08-Nov-19 19:10 34.200425 -119.156056 269 782ft 116kts
08-Nov-19 19:11 34.200804 -119.187851 270 274ft 75kts
08-Nov-19 19:12 34.200723 -119.207047 242 39ft 12kts
08-Nov-19 19:13 34.200048 -119.207145 177 39ft 0kts
08-Nov-19 19:14 34.199476 -119.207726 91 38ft 4kts
08-Nov-19 19:15 34.199476 -119.207672 88 38ft 0kts
08-Nov-19 19:16 34.199476 -119.207672 88 38ft 0kts

Navigation Log

Ident Type
Flight plan parsing failed, navigation log unavailable